Current Weather

Tte De Av Salvador Ogaya G

Tte De Av Salvador Ogaya G, Bolivia (SLPS)

Report from: Tuesday, July 16, 2024 11:00 AM -04
Current time: Tuesday, July 16, 2024 11:33 AM -04

Nearby weather – Weather history – Daily summaries
Weather forecast

Temperature23.0°C (73.4°F)
Dew point13.0°C (55.4°F)
Winds Calm
Visibility6.2 mi. (10 km)
Altimeter30.24 in.Hg (1024 mB)
Relative humidity53 %
Density altitude780 ft. (238 m)
Flight conditions Visual Meteorological Conditions
Raw dataSLPS 161500Z 00000KT 9999 NSC 23/13 Q1024
An error has occurred. This application may no longer respond until reloaded. Reload 🗙